Flight Track Log - Related Links

Times and Time Zones

All times are in EDT time to prevent confusion due to time zone crossing. See the A6-EDY flight status page for this flight to view local times or setup timezone preferences in your user account.


Time Position Orientation Groundspeed Altitude Reporting Facility
EDT Latitude Longitude Course Direction KTS MPH feet Rate Location/Type
Mon 02:32:25 AM 25.2540 55.3690 360° North 126 145 200  Level FlightAware ADS-B
Mon 02:33:00 AM 25.2690 55.3440 304° West 176 203 500 960 Climbing FlightAware ADS-B
Mon 02:33:40 AM 25.2860 55.3120 300° West 183 211 1,400 1,108 Climbing FlightAware ADS-B
Mon 02:34:05 AM 25.2980 55.2900 301° West 209 241 1,700 900 Climbing FlightAware ADS-B
Mon 02:34:20 AM 25.3100 55.2790 320° Northwest 226 260 2,000 1,050 Climbing FlightAware ADS-B
Mon 02:34:45 AM 25.3390 55.2740 351° North 253 291 2,400 1,440 Climbing FlightAware ADS-B
Mon 02:35:10 AM 25.3650 55.2880 26° Northeast 269 310 3,200 1,964 Climbing FlightAware ADS-B
Mon 02:35:40 AM 25.3970 55.3110 33° Northeast 277 319 4,200 1,846 Climbing FlightAware ADS-B
Mon 02:36:15 AM 25.4320 55.3360 33° Northeast 290 334 5,200 1,300 Climbing FlightAware ADS-B
Mon 02:36:40 AM 25.4600 55.3570 34° Northeast 315 362 5,500 360 Climbing FlightAware ADS-B
Mon 02:37:05 AM 25.4910 55.3790 33° Northeast 315 362 5,500 199 Level FlightAware ADS-B
Mon 05:09:57 AM 44.2870 48.1690 322° Northwest 505 581 36,000 199 Climbing FlightAware ADS-B
Mon 05:10:32 AM 44.3640 48.1190 335° Northwest 506 582 36,000  Level FlightAware ADS-B
Mon 05:11:17 AM 44.4460 48.0630 334° Northwest 506 582 36,000  Level FlightAware ADS-B
Mon 05:12:07 AM 44.5350 48.0020 334° Northwest 506 582 36,000  Level FlightAware ADS-B
Mon 05:12:47 AM 44.6070 47.9530 334° Northwest 506 582 36,000  Level FlightAware ADS-B
Mon 05:13:27 AM 44.7250 47.8800 336° Northwest 508 585 36,000  Level FlightAware ADS-B
Mon 05:14:37 AM 44.7070 47.8920 155° Southeast 510 587 36,000  Level FlightAware ADS-B
Mon 05:15:17 AM 44.7790 47.8430 334° Northwest 510 587 36,000  Level FlightAware ADS-B
Mon 05:15:57 AM 45.0050 47.6960 335° Northwest 509 586 36,000  Level FlightAware ADS-B
Mon 05:16:37 AM 45.0050 47.6960 335° Northwest 508 585 36,000  Level FlightAware ADS-B
Mon 05:18:22 AM 45.3510 47.4640 335° Northwest 506 582 36,000  Level FlightAware ADS-B
Mon 05:19:07 AM 45.4460 47.3990 334° Northwest 503 579 36,000  Level FlightAware ADS-B
Mon 05:19:47 AM 45.5270 47.3410 333° Northwest 502 578 36,000  Level FlightAware ADS-B
Mon 05:20:32 AM 45.6270 47.2720 334° Northwest 500 575 36,000  Level FlightAware ADS-B
Mon 05:21:12 AM 45.7140 47.2110 334° Northwest 499 574 36,000  Level FlightAware ADS-B
Mon 05:21:52 AM 45.7870 47.1600 334° Northwest 499 574 36,000  Level FlightAware ADS-B
Mon 05:22:37 AM 45.8900 47.0870 334° Northwest 500 575 36,000  Level FlightAware ADS-B
Mon 05:23:17 AM 45.9750 47.0260 333° Northwest 501 577 36,000  Level FlightAware ADS-B
Mon 05:23:52 AM 46.0430 46.9710 331° Northwest 502 578 36,000  Level FlightAware ADS-B
Mon 05:24:37 AM 46.1310 46.9030 332° Northwest 503 579 36,000  Level FlightAware ADS-B
Mon 05:25:17 AM 46.2230 46.8280 331° Northwest 504 580 36,000  Level FlightAware ADS-B
Mon 05:26:07 AM 46.3020 46.7550 327° Northwest 504 580 36,000  Level FlightAware ADS-B
Mon 05:26:47 AM 46.3860 46.6780 328° Northwest 504 580 36,000  Level FlightAware ADS-B
Mon 05:27:32 AM 46.4780 46.5930 328° Northwest 504 580 36,000  Level FlightAware ADS-B
Mon 05:28:12 AM 46.5660 46.5120 328° Northwest 506 582 36,000  Level FlightAware ADS-B
Mon 05:28:52 AM 46.6460 46.4380 328° Northwest 506 582 36,000  Level FlightAware ADS-B
Mon 05:29:37 AM 46.7310 46.3580 327° Northwest 507 583 36,000  Level FlightAware ADS-B
Mon 05:30:17 AM 46.8070 46.2870 327° Northwest 507 583 36,000  Level FlightAware ADS-B
Mon 05:31:02 AM 46.8940 46.2050 327° Northwest 509 586 36,000  Level FlightAware ADS-B
Mon 05:31:42 AM 46.9730 46.1300 327° Northwest 508 585 36,000  Level FlightAware ADS-B
Mon 05:32:17 AM 47.0370 46.0700 327° Northwest 508 585 36,000  Level FlightAware ADS-B
Mon 05:33:02 AM 47.1330 45.9790 327° Northwest 508 585 36,000  Level FlightAware ADS-B
Mon 05:33:47 AM 47.2190 45.8970 327° Northwest 509 586 36,000  Level FlightAware ADS-B
Mon 05:34:32 AM 47.3060 45.8140 327° Northwest 510 587 36,000  Level FlightAware ADS-B
Mon 05:35:27 AM 47.4230 45.7010 327° Northwest 511 588 36,000  Level FlightAware ADS-B
Mon 05:36:07 AM 47.5020 45.6250 327° Northwest 513 590 36,000  Level FlightAware ADS-B
Mon 05:36:32 AM 47.5440 45.5840 327° Northwest 513 590 36,000  Level FlightAware ADS-B
Mon 05:37:07 AM 47.6230 45.5080 327° Northwest 513 590 36,000  Level FlightAware ADS-B
Mon 05:37:47 AM 47.6970 45.4350 326° Northwest 513 590 36,000  Level FlightAware ADS-B
Mon 05:38:37 AM 47.7960 45.3390 327° Northwest 510 587 36,000  Level FlightAware ADS-B
Mon 05:39:22 AM 47.8810 45.2550 326° Northwest 507 583 36,000  Level FlightAware ADS-B
Mon 05:40:02 AM 47.9640 45.1740 327° Northwest 507 583 36,000  Level FlightAware ADS-B
Mon 05:40:37 AM 48.0340 45.1040 326° Northwest 508 585 36,000  Level FlightAware ADS-B
Mon 05:41:42 AM 48.1550 44.9840 327° Northwest 510 587 36,000  Level FlightAware ADS-B
Mon 05:42:17 AM 48.2240 44.9130 326° Northwest 511 588 36,000  Level FlightAware ADS-B
Mon 05:43:02 AM 48.3190 44.8180 326° Northwest 511 588 36,000  Level FlightAware ADS-B
Mon 05:43:47 AM 48.4030 44.7320 326° Northwest 509 586 36,000  Level FlightAware ADS-B
Mon 05:44:27 AM 48.4790 44.6540 326° Northwest 508 585 36,000  Level FlightAware ADS-B
Mon 05:45:52 AM 48.6380 44.4920 326° Northwest 506 582 36,000  Level FlightAware ADS-B
Mon 05:46:32 AM 48.7040 44.4250 326° Northwest 506 582 36,000  Level FlightAware ADS-B
Mon 05:47:12 AM 48.7700 44.3570 326° Northwest 506 582 36,000  Level FlightAware ADS-B
Mon 05:47:52 AM 48.8360 44.2900 326° Northwest 506 582 36,000  Level FlightAware ADS-B
Mon 05:51:42 AM 49.2500 43.6910 321° Northwest 500 575 36,000  Level FlightAware ADS-B
Mon 05:58:27 AM 49.8300 42.5710 321° Northwest 494 568 36,000  Level FlightAware ADS-B
Mon 05:59:12 AM 49.8940 42.4440 308° West 494 568 36,000  Level FlightAware ADS-B
Mon 05:59:52 AM 49.9490 42.3340 308° West 493 567 36,000  Level FlightAware ADS-B
Mon 06:00:37 AM 50.0130 42.2060 308° West 493 567 36,000  Level FlightAware ADS-B
Mon 06:01:17 AM 50.0680 42.0950 308° West 492 566 36,000  Level FlightAware ADS-B
Mon 06:01:57 AM 50.1190 41.9920 308° West 493 567 36,000  Level FlightAware ADS-B
Mon 06:02:42 AM 50.1850 41.8580 308° West 492 566 36,000  Level FlightAware ADS-B
Mon 06:03:22 AM 50.2420 41.7410 307° West 491 565 36,000  Level FlightAware ADS-B
Mon 06:04:02 AM 50.2960 41.6280 307° West 489 563 36,000  Level FlightAware ADS-B
Mon 06:04:47 AM 50.3550 41.5060 307° West 489 563 36,000  Level FlightAware ADS-B
Mon 06:05:27 AM 50.4110 41.3890 307° West 488 562 36,000  Level FlightAware ADS-B
Mon 06:06:12 AM 50.4720 41.2610 307° West 487 560 36,000  Level FlightAware ADS-B
Mon 06:06:52 AM 50.5250 41.1490 307° West 485 558 36,000  Level FlightAware ADS-B
Mon 06:07:32 AM 50.5770 41.0390 307° West 487 560 36,000  Level FlightAware ADS-B
Mon 06:08:17 AM 50.6390 40.9080 307° West 488 562 36,000  Level FlightAware ADS-B
Mon 06:08:57 AM 50.6930 40.7940 307° West 491 565 36,000  Level FlightAware ADS-B
Mon 06:09:37 AM 50.7410 40.6890 306° West 490 564 36,000  Level FlightAware ADS-B
Mon 06:10:22 AM 50.8080 40.5710 312° West 494 568 36,000  Level FlightAware ADS-B
Mon 06:11:02 AM 50.8840 40.4690 320° Northwest 497 572 36,000  Level FlightAware ADS-B
Mon 06:11:42 AM 50.9550 40.3780 321° Northwest 496 571 36,000  Level FlightAware ADS-B
Mon 06:12:22 AM 51.0150 40.3000 321° Northwest 496 571 36,000  Level FlightAware ADS-B
Mon 06:13:07 AM 51.1010 40.1850 320° Northwest 493 567 36,000  Level FlightAware ADS-B
Mon 06:13:52 AM 51.1820 40.0800 321° Northwest 492 566 36,000  Level FlightAware ADS-B
Mon 06:14:32 AM 51.2430 40.0020 321° Northwest 492 566 36,000  Level FlightAware ADS-B
Mon 06:15:12 AM 51.3030 39.9240 321° Northwest 492 566 36,000  Level FlightAware ADS-B
Mon 06:15:52 AM 51.3630 39.8460 321° Northwest 492 566 36,000  Level FlightAware ADS-B
Mon 06:16:32 AM 51.4230 39.7680 321° Northwest 492 566 36,000  Level FlightAware ADS-B
Mon 06:17:22 AM 51.4980 39.6700 321° Northwest 492 566 36,000  Level FlightAware ADS-B
Mon 06:18:02 AM 51.5580 39.5920 321° Northwest 492 566 36,000  Level FlightAware ADS-B
Mon 06:18:42 AM 51.6180 39.5140 321° Northwest 492 566 36,000  Level FlightAware ADS-B
Mon 06:19:22 AM 51.6780 39.4350 321° Northwest 492 566 36,000  Level FlightAware ADS-B
Mon 06:20:02 AM 51.7390 39.3560 321° Northwest 492 566 36,000  Level FlightAware ADS-B
Mon 06:20:52 AM 51.8140 39.2580 321° Northwest 492 566 36,000  Level FlightAware ADS-B
Mon 06:21:32 AM 51.8740 39.1790 321° Northwest 492 566 36,000  Level FlightAware ADS-B
Mon 06:22:12 AM 51.9340 39.1000 321° Northwest 492 566 36,000  Level FlightAware ADS-B
Mon 06:22:52 AM 51.9940 39.0210 321° Northwest 492 566 36,000  Level FlightAware ADS-B
Mon 06:26:42 AM 52.3810 38.0800 318° Northwest 496 571 36,000  Level FlightAware ADS-B
Mon 06:27:52 AM 52.5170 37.9660 333° Northwest 492 566 36,000  Level FlightAware ADS-B
Mon 06:28:32 AM 52.6030 37.8930 333° Northwest 489 563 36,000  Level FlightAware ADS-B
Mon 06:29:17 AM 52.6900 37.8200 333° Northwest 486 559 36,000  Level FlightAware ADS-B
Mon 06:29:57 AM 52.7710 37.7520 333° Northwest 484 557 36,000  Level FlightAware ADS-B
Mon 06:30:37 AM 52.8540 37.6810 333° Northwest 483 556 36,000  Level FlightAware ADS-B
Mon 06:31:22 AM 52.9420 37.6050 333° Northwest 483 556 36,000  Level FlightAware ADS-B
Mon 06:32:02 AM 53.0220 37.5370 333° Northwest 484 557 36,000  Level FlightAware ADS-B
Mon 06:32:47 AM 53.1110 37.4600 333° Northwest 485 558 36,000  Level FlightAware ADS-B
Mon 06:33:27 AM 53.1900 37.3910 332° Northwest 487 560 36,000  Level FlightAware ADS-B
Mon 06:34:02 AM 53.2610 37.3300 333° Northwest 487 560 36,000  Level FlightAware ADS-B
Mon 06:34:52 AM 53.3590 37.2440 332° Northwest 484 557 36,000  Level FlightAware ADS-B
Mon 06:35:37 AM 53.4460 37.1680 333° Northwest 480 552 36,000  Level FlightAware ADS-B
Mon 06:36:17 AM 53.5290 37.0940 332° Northwest 479 551 36,000  Level FlightAware ADS-B
Mon 06:36:57 AM 53.5970 37.0160 326° Northwest 479 551 36,000  Level FlightAware ADS-B
Mon 06:37:42 AM 53.6730 36.9000 318° Northwest 478 550 36,000  Level FlightAware ADS-B
Mon 06:38:22 AM 53.7420 36.7950 318° Northwest 477 549 36,000  Level FlightAware ADS-B
Mon 06:39:07 AM 53.8140 36.6820 317° Northwest 477 549 36,000  Level FlightAware ADS-B
Mon 06:39:47 AM 53.8790 36.5810 318° Northwest 479 551 36,000  Level FlightAware ADS-B
Mon 06:40:32 AM 53.9520 36.4660 317° Northwest 477 549 36,000  Level FlightAware ADS-B
Mon 06:41:12 AM 54.0000 36.3900 317° Northwest 476 548 36,000  Level FlightAware ADS-B
Mon 06:41:52 AM 54.0770 36.2680 317° Northwest 476 548 36,000  Level FlightAware ADS-B
Mon 06:42:32 AM 54.1410 36.1660 317° Northwest 474 545 36,000  Level FlightAware ADS-B
Mon 06:43:17 AM 54.2130 36.0510 317° Northwest 471 542 36,000  Level FlightAware ADS-B
Mon 06:43:57 AM 54.2750 35.9510 317° Northwest 469 540 36,000  Level FlightAware ADS-B
Mon 06:44:42 AM 54.3480 35.8360 317° Northwest 467 537 36,000  Level FlightAware ADS-B
Mon 06:45:22 AM 54.4130 35.7340 318° Northwest 467 537 36,000  Level FlightAware ADS-B
Mon 06:46:07 AM 54.4830 35.6220 317° Northwest 467 537 36,000  Level FlightAware ADS-B
Mon 06:46:47 AM 54.5460 35.5220 317° Northwest 468 539 36,000  Level FlightAware ADS-B
Mon 06:47:27 AM 54.6100 35.4210 318° Northwest 468 539 36,000  Level FlightAware ADS-B
Mon 06:48:12 AM 54.6820 35.3090 318° Northwest 469 540 36,000  Level FlightAware ADS-B
Mon 06:48:52 AM 54.7430 35.2100 317° Northwest 461 531 36,000  Level FlightAware ADS-B
Mon 06:49:32 AM 54.8000 35.0950 311° West 460 529 36,000  Level FlightAware ADS-B
Mon 06:50:17 AM 54.8640 34.9690 311° West 465 535 36,000  Level FlightAware ADS-B
Mon 06:50:57 AM 54.9200 34.8570 311° West 465 535 36,000  Level FlightAware ADS-B
Mon 06:51:42 AM 54.9860 34.7230 311° West 464 534 36,000  Level FlightAware ADS-B
Mon 06:52:22 AM 55.0410 34.6130 311° West 464 534 36,000  Level FlightAware ADS-B
Mon 06:53:02 AM 55.0970 34.5010 311° West 464 534 36,000  Level FlightAware ADS-B
Mon 06:53:47 AM 55.1590 34.3780 311° West 464 534 36,000  Level FlightAware ADS-B
Mon 06:54:27 AM 55.2180 34.2580 311° West 464 534 36,000  Level FlightAware ADS-B
Mon 06:55:07 AM 55.2730 34.1430 310° West 457 526 36,000  Level FlightAware ADS-B
Mon 06:57:17 AM 55.4450 33.7850 314° West 446 513 36,000  Level FlightAware ADS-B
Mon 06:57:57 AM 55.4950 33.6810 310° West 443 510 36,000  Level FlightAware ADS-B
Mon 06:58:42 AM 55.5530 33.5630 311° West 444 511 36,000  Level FlightAware ADS-B
Mon 06:59:22 AM 55.6130 33.4400 311° West 447 514 36,000  Level FlightAware ADS-B
Mon 07:00:02 AM 55.6670 33.3300 311° West 448 516 36,000  Level FlightAware ADS-B
Mon 07:00:47 AM 55.7270 33.2050 310° West 449 517 36,000  Level FlightAware ADS-B
Mon 07:01:27 AM 55.7780 33.0980 310° West 447 514 36,000  Level FlightAware ADS-B
Mon 07:02:12 AM 55.8390 32.9720 311° West 445 512 36,000  Level FlightAware ADS-B
Mon 07:02:52 AM 55.8890 32.8520 307° West 447 514 36,000  Level FlightAware ADS-B
Mon 07:03:27 AM 55.9310 32.7480 306° West 445 512 36,000  Level FlightAware ADS-B
Mon 07:04:17 AM 55.9880 32.6040 305° West 445 512 36,000  Level FlightAware ADS-B
Mon 07:04:57 AM 56.0380 32.4760 305° West 446 513 36,000  Level FlightAware ADS-B
Mon 07:05:37 AM 56.0850 32.3570 305° West 445 512 36,000  Level FlightAware ADS-B
Mon 07:06:22 AM 56.1390 32.2200 305° West 443 510 36,000  Level FlightAware ADS-B
Mon 07:06:57 AM 56.1770 32.1210 305° West 443 510 36,000  Level FlightAware ADS-B
Mon 07:08:12 AM 56.2270 31.9860 304° West 444 511 36,000  Level FlightAware ADS-B
Mon 07:08:47 AM 56.2010 32.0570 123° Southeast 444 511 36,000  Level FlightAware ADS-B
Mon 07:09:32 AM 56.2450 31.9320 302° West 444 511 36,000  Level FlightAware ADS-B
Mon 07:10:12 AM 56.2820 31.8250 302° West 444 511 36,000  Level FlightAware ADS-B
Mon 07:11:02 AM 56.3280 31.6920 302° West 444 511 36,000  Level FlightAware ADS-B
Mon 07:11:42 AM 56.3650 31.5850 302° West 444 511 36,000  Level FlightAware ADS-B
Mon 07:12:22 AM 56.4020 31.4780 302° West 444 511 36,000  Level FlightAware ADS-B
Mon 07:13:02 AM 56.4390 31.3710 302° West 444 511 36,000  Level FlightAware ADS-B
Mon 07:13:52 AM 56.4850 31.2370 302° West 444 511 36,000  Level FlightAware ADS-B
Mon 07:14:32 AM 56.5220 31.1290 302° West 444 511 36,000  Level FlightAware ADS-B
Mon 07:15:12 AM 56.5590 31.0220 302° West 444 511 36,000  Level FlightAware ADS-B
Mon 07:15:52 AM 56.5960 30.9140 302° West 444 511 36,000  Level FlightAware ADS-B
Mon 07:16:32 AM 56.6330 30.8070 302° West 444 511 36,000  Level FlightAware ADS-B
Mon 07:17:22 AM 56.6800 30.6720 302° West 444 511 36,000  Level FlightAware ADS-B
Mon 07:18:02 AM 56.7170 30.5640 302° West 444 511 36,000  Level FlightAware ADS-B
Mon 07:18:42 AM 56.7540 30.4560 302° West 444 511 36,000  Level FlightAware ADS-B
Mon 07:21:02 AM 57.1580 29.5170 311° West 452 520 36,000  Level FlightAware ADS-B
Mon 07:21:47 AM 57.2100 29.3700 303° West 452 520 36,000  Level FlightAware ADS-B
Mon 07:22:27 AM 57.2580 29.2340 303° West 453 521 36,000  Level FlightAware ADS-B
Mon 07:23:12 AM 57.3090 29.0900 303° West 452 520 36,000  Level FlightAware ADS-B
Mon 07:23:52 AM 57.3540 28.9600 303° West 451 519 36,000  Level FlightAware ADS-B
Mon 07:24:32 AM 57.4000 28.8300 303° West 450 518 36,000  Level FlightAware ADS-B
Mon 07:25:17 AM 57.4500 28.6830 302° West 449 517 36,000  Level FlightAware ADS-B
Mon 07:25:57 AM 57.4940 28.5550 303° West 449 517 36,000  Level FlightAware ADS-B
Mon 07:26:37 AM 57.5380 28.4280 303° West 451 519 36,000  Level FlightAware ADS-B
Mon 07:27:22 AM 57.5870 28.2820 302° West 449 517 36,000  Level FlightAware ADS-B
Mon 07:28:02 AM 57.6300 28.1560 303° West 450 518 36,000  Level FlightAware ADS-B
Mon 07:28:47 AM 57.6830 28.0000 302° West 452 520 36,000  Level FlightAware ADS-B
Mon 07:29:27 AM 57.7260 27.8690 302° West 454 522 36,000  Level FlightAware ADS-B
Mon 07:30:12 AM 57.7780 27.7150 302° West 456 525 36,000  Level FlightAware ADS-B
Mon 07:30:52 AM 57.8200 27.5880 302° West 454 522 36,000  Level FlightAware ADS-B
Mon 07:31:32 AM 57.8810 27.4730 315° West 454 522 36,000  Level FlightAware ADS-B
Mon 07:32:17 AM 57.9500 27.3560 318° Northwest 452 520 36,000  Level FlightAware ADS-B
Mon 07:32:57 AM 58.0110 27.2490 317° Northwest 452 520 36,000  Level FlightAware ADS-B
Mon 07:33:37 AM 58.0740 27.1400 318° Northwest 451 519 36,000  Level FlightAware ADS-B
Mon 07:34:22 AM 58.1390 27.0270 317° Northwest 452 520 36,000  Level FlightAware ADS-B
Mon 07:35:02 AM 58.2040 26.9140 318° Northwest 453 521 36,000  Level FlightAware ADS-B
Mon 07:35:42 AM 58.2660 26.8050 317° Northwest 454 522 36,000  Level FlightAware ADS-B
Mon 07:36:27 AM 58.3340 26.6840 317° Northwest 452 520 36,000  Level FlightAware ADS-B
Mon 07:37:12 AM 58.4010 26.5650 317° Northwest 452 520 36,000  Level FlightAware ADS-B
Mon 07:37:52 AM 58.4640 26.4520 317° Northwest 451 519 36,000  Level FlightAware ADS-B
Mon 07:38:37 AM 58.5310 26.3320 317° Northwest 452 520 36,000  Level FlightAware ADS-B
Mon 07:39:17 AM 58.5880 26.2300 317° Northwest 453 521 36,000  Level FlightAware ADS-B
Mon 07:40:02 AM 58.6560 26.1060 317° Northwest 451 519 36,000  Level FlightAware ADS-B
Mon 07:40:42 AM 58.7210 25.9860 316° Northwest 450 518 36,000  Level FlightAware ADS-B
Mon 07:41:22 AM 58.7820 25.8750 317° Northwest 449 517 36,000  Level FlightAware ADS-B
Mon 07:42:07 AM 58.8470 25.7540 316° Northwest 449 517 36,000  Level FlightAware ADS-B
Mon 07:42:42 AM 58.8990 25.6570 316° Northwest 449 517 36,000  Level FlightAware ADS-B
Mon 07:43:22 AM 58.9610 25.5470 318° Northwest 450 518 36,000  Level FlightAware ADS-B
Mon 07:44:02 AM 59.0240 25.4520 322° Northwest 452 520 36,000  Level FlightAware ADS-B
Mon 07:50:47 AM 59.7220 24.5250 306° West 463 533 36,000  Level FlightAware ADS-B
Mon 07:52:12 AM 59.8470 24.2530 313° West 456 525 36,000  Level FlightAware ADS-B
Mon 07:52:52 AM 59.9060 24.1230 312° West 458 527 36,000  Level FlightAware ADS-B
Mon 07:53:37 AM 59.9700 23.9790 312° West 461 531 36,000  Level FlightAware ADS-B
Mon 07:54:17 AM 60.0260 23.8530 312° West 463 533 36,000  Level FlightAware ADS-B
Mon 07:54:57 AM 60.0830 23.7240 312° West 463 533 36,000  Level FlightAware ADS-B
Mon 07:55:42 AM 60.1460 23.5800 311° West 462 532 36,000  Level FlightAware ADS-B
Mon 07:56:22 AM 60.2020 23.4500 311° West 461 531 36,000  Level FlightAware ADS-B
Mon 07:57:07 AM 60.2650 23.3050 311° West 462 532 36,000  Level FlightAware ADS-B
Mon 07:57:47 AM 60.3200 23.1770 311° West 455 524 36,000  Level FlightAware ADS-B
Mon 07:58:27 AM 60.3760 23.0460 311° West 455 524 36,000  Level FlightAware ADS-B
Mon 07:59:12 AM 60.4370 22.9020 311° West 456 525 36,000  Level FlightAware ADS-B
Mon 07:59:52 AM 60.4940 22.7680 311° West 458 527 36,000  Level FlightAware ADS-B
Mon 08:00:37 AM 60.5600 22.6110 311° West 463 533 36,000  Level FlightAware ADS-B
Mon 08:01:17 AM 60.6130 22.4850 311° West 462 532 36,000  Level FlightAware ADS-B
Mon 08:01:57 AM 60.6690 22.3480 310° West 461 531 36,000  Level FlightAware ADS-B
Mon 08:02:37 AM 60.7200 22.2250 310° West 462 532 36,000  Level FlightAware ADS-B
Mon 08:03:22 AM 60.7830 22.0720 310° West 460 529 36,000  Level FlightAware ADS-B
Mon 08:04:07 AM 60.8460 21.9160 310° West 461 531 36,000  Level FlightAware ADS-B
Mon 08:04:47 AM 60.9020 21.7790 310° West 463 533 36,000  Level FlightAware ADS-B
Mon 08:05:27 AM 60.9520 21.6550 310° West 465 535 36,000  Level FlightAware ADS-B
Mon 08:06:12 AM 61.0160 21.4950 310° West 466 536 36,000  Level FlightAware ADS-B
Mon 08:06:52 AM 61.0710 21.3540 309° West 464 534 36,000  Level FlightAware ADS-B
Mon 08:07:37 AM 61.1300 21.2070 310° West 463 533 36,000  Level FlightAware ADS-B
Mon 08:08:07 AM 61.1710 21.1030 309° West 462 532 36,000  Level FlightAware ADS-B
Mon 08:08:57 AM 61.2370 20.9320 309° West 461 531 36,000  Level FlightAware ADS-B
Mon 08:09:42 AM 61.2990 20.7720 309° West 461 531 36,000  Level FlightAware ADS-B
Mon 08:10:22 AM 61.3520 20.6350 309° West 461 531 36,000  Level FlightAware ADS-B
Mon 08:11:07 AM 61.4110 20.4800 309° West 463 533 36,000  Level FlightAware ADS-B
Mon 08:11:47 AM 61.4630 20.3440 309° West 464 534 36,000  Level FlightAware ADS-B
Mon 08:12:27 AM 61.5170 20.2010 308° West 463 533 36,000  Level FlightAware ADS-B
Mon 08:13:12 AM 61.5770 20.0420 308° West 465 535 36,000  Level FlightAware ADS-B
Mon 08:13:52 AM 61.6280 19.9050 308° West 466 536 36,000  Level FlightAware ADS-B
Mon 08:14:32 AM 61.6830 19.7570 308° West 467 537 36,000  Level FlightAware ADS-B
Mon 08:15:17 AM 61.7430 19.5920 308° West 467 537 36,000  Level FlightAware ADS-B
Mon 08:15:57 AM 61.7970 19.4670 312° West 474 545 36,000  Level FlightAware ADS-B
Mon 08:16:37 AM 61.8640 19.3290 316° Northwest 475 547 36,000  Level FlightAware ADS-B
Mon 08:24:27 AM 62.5880 17.7560 299° West 473 544 36,000  Level FlightAware ADS-B
Mon 08:28:17 AM 62.9320 16.9660 299° West 471 542 36,000  Level FlightAware ADS-B
Mon 08:29:02 AM 63.0000 16.8080 314° West 471 542 36,000  Level FlightAware ADS-B
Mon 08:29:47 AM 63.0660 16.6510 313° West 474 545 36,000  Level FlightAware ADS-B
Mon 08:30:27 AM 63.1260 16.5100 313° West 474 545 36,000  Level FlightAware ADS-B
Mon 08:31:07 AM 63.1860 16.3670 313° West 474 545 36,000  Level FlightAware ADS-B
Mon 08:31:52 AM 63.2520 16.2060 312° West 472 543 36,000  Level FlightAware ADS-B
Mon 08:32:27 AM 63.3040 16.0800 313° West 466 536 36,000  Level FlightAware ADS-B
Mon 08:33:12 AM 63.3720 15.9160 313° West 465 535 36,000  Level FlightAware ADS-B
Mon 08:33:57 AM 63.4360 15.7580 312° West 467 537 36,000  Level FlightAware ADS-B
Mon 08:34:37 AM 63.4960 15.6100 312° West 470 541 36,000  Level FlightAware ADS-B
Mon 08:35:22 AM 63.5600 15.4490 312° West 477 549 36,000  Level FlightAware ADS-B
Mon 08:36:02 AM 63.6200 15.3000 312° West 467 537 36,000  Level FlightAware ADS-B
Mon 08:36:37 AM 63.6700 15.1720 311° West 466 536 36,000  Level FlightAware ADS-B
Mon 08:39:27 AM 63.9140 14.5460 297° West 470 541 36,000  Level FlightAware ADS-B
Mon 08:40:12 AM 63.9800 14.3720 311° West 471 542 36,000  Level FlightAware ADS-B
Mon 08:40:52 AM 64.0370 14.2210 311° West 473 544 36,000  Level FlightAware ADS-B
Mon 08:41:37 AM 64.0990 14.0570 311° West 471 542 36,000  Level FlightAware ADS-B
Mon 08:42:22 AM 64.1580 13.8990 311° West 470 541 36,000  Level FlightAware ADS-B
Mon 08:43:02 AM 64.2190 13.7360 311° West 469 540 36,000  Level FlightAware ADS-B
Mon 08:43:42 AM 64.2750 13.5840 310° West 468 539 36,000  Level FlightAware ADS-B
Mon 08:44:27 AM 64.3360 13.4170 310° West 468 539 36,000  Level FlightAware ADS-B
Mon 08:47:27 AM 64.5890 12.7110 295° West 466 536 36,000  Level FlightAware ADS-B
Mon 08:48:12 AM 64.6470 12.5480 310° West 467 537 36,000  Level FlightAware ADS-B
Mon 08:49:07 AM 64.7210 12.3280 308° West 466 536 36,000  Level FlightAware ADS-B
Mon 08:49:47 AM 64.7660 12.1930 308° West 466 536 36,000  Level FlightAware ADS-B
Mon 08:50:27 AM 64.8110 12.0570 308° West 466 536 36,000  Level FlightAware ADS-B
Mon 08:51:07 AM 64.8570 11.9210 309° West 466 536 36,000  Level FlightAware ADS-B
Mon 08:51:57 AM 64.9130 11.7510 308° West 466 536 36,000  Level FlightAware ADS-B
Mon 08:52:27 AM 64.9470 11.6490 308° West 466 536 36,000  Level FlightAware ADS-B
Mon 08:53:17 AM 65.0670 11.3140 310° West 472 543 36,000  Level FlightAware ADS-B
Mon 08:54:02 AM 65.1280 11.1300 308° West 474 545 36,000  Level FlightAware ADS-B
Mon 08:54:42 AM 65.1820 10.9650 308° West 478 550 36,000  Level FlightAware ADS-B
Mon 08:55:22 AM 65.2300 10.8160 308° West 477 549 36,000  Level FlightAware ADS-B
Mon 08:56:07 AM 65.2850 10.6410 307° West 477 549 36,000  Level FlightAware ADS-B
Mon 08:56:47 AM 65.3300 10.4980 307° West 477 549 36,000  Level FlightAware ADS-B
Mon 08:57:27 AM 65.3760 10.3540 308° West 477 549 36,000  Level FlightAware ADS-B
Mon 08:58:07 AM 65.4210 10.2100 307° West 477 549 36,000  Level FlightAware ADS-B
Mon 08:58:57 AM 65.4770 10.0300 307° West 477 549 36,000  Level FlightAware ADS-B
Mon 08:59:37 AM 65.5220 9.8850 307° West 477 549 36,000  Level FlightAware ADS-B
Mon 09:00:17 AM 65.5670 9.7400 307° West 477 549 36,000  Level FlightAware ADS-B
Mon 09:00:57 AM 65.6130 9.5950 308° West 477 549 36,000  Level FlightAware ADS-B
Mon 09:01:37 AM 65.6580 9.4500 307° West 477 549 36,000  Level FlightAware ADS-B
Mon 09:02:27 AM 65.7140 9.2680 307° West 477 549 36,000  Level FlightAware ADS-B
Mon 09:03:07 AM 65.7590 9.1220 307° West 477 549 36,000  Level FlightAware ADS-B
Mon 09:03:47 AM 65.8040 8.9760 307° West 477 549 36,000  Level FlightAware ADS-B
Mon 09:04:27 AM 65.8500 8.8300 308° West 477 549 36,000  Level FlightAware ADS-B
Mon 09:05:07 AM 65.8950 8.6830 307° West 477 549 36,000  Level FlightAware ADS-B
Mon 11:46:02 AM 67.0240 -45.5690 246° West 460 529 36,000  Level FlightAware ADS-B
Mon 11:46:42 AM 66.9840 -45.7640 242° Southwest 462 532 36,000  Level FlightAware ADS-B
Mon 11:47:22 AM 66.9440 -45.9590 242° Southwest 460 529 36,000  Level FlightAware ADS-B
Mon 11:48:07 AM 66.8980 -46.1780 242° Southwest 459 528 36,000  Level FlightAware ADS-B
Mon 11:48:47 AM 66.8570 -46.3700 242° Southwest 461 531 36,000  Level FlightAware ADS-B
Mon 11:49:27 AM 66.8180 -46.5570 242° Southwest 463 533 36,000  Level FlightAware ADS-B
Mon 11:50:12 AM 66.7730 -46.7660 241° Southwest 464 534 36,000  Level FlightAware ADS-B
Mon 11:50:52 AM 66.7320 -46.9560 241° Southwest 465 535 36,000  Level FlightAware ADS-B
Mon 11:51:32 AM 66.6900 -47.1450 241° Southwest 465 535 36,000  Level FlightAware ADS-B
Mon 11:52:22 AM 66.6370 -47.3840 241° Southwest 463 533 36,000  Level FlightAware ADS-B
Mon 11:53:02 AM 66.5950 -47.5720 241° Southwest 466 536 36,000  Level FlightAware ADS-B
Mon 11:53:42 AM 66.5520 -47.7630 241° Southwest 467 537 36,000  Level FlightAware ADS-B
Mon 11:54:17 AM 66.5180 -47.9140 241° Southwest 467 537 36,000  Level FlightAware ADS-B
Mon 11:55:02 AM 66.4750 -48.1010 240° Southwest 467 537 36,000  Level FlightAware ADS-B
Mon 11:55:52 AM 66.4290 -48.3000 240° Southwest 467 537 36,000  Level FlightAware ADS-B
Mon 11:56:32 AM 66.3920 -48.4590 240° Southwest 467 537 36,000  Level FlightAware ADS-B
Mon 11:57:12 AM 66.3560 -48.6180 241° Southwest 467 537 36,000  Level FlightAware ADS-B
Mon 11:57:52 AM 66.3190 -48.7770 240° Southwest 467 537 36,000  Level FlightAware ADS-B
Mon 11:58:32 AM 66.2820 -48.9350 240° Southwest 467 537 36,000  Level FlightAware ADS-B
Mon 11:59:22 AM 66.2360 -49.1320 240° Southwest 467 537 36,000  Level FlightAware ADS-B
Mon 12:00:02 PM 66.1990 -49.2900 240° Southwest 467 537 36,000  Level FlightAware ADS-B
Mon 12:00:42 PM 66.1630 -49.4470 240° Southwest 467 537 36,000  Level FlightAware ADS-B
Mon 12:01:22 PM 66.1260 -49.6050 240° Southwest 467 537 36,000  Level FlightAware ADS-B
Mon 12:02:02 PM 66.0890 -49.7620 240° Southwest 467 537 36,000  Level FlightAware ADS-B
Mon 12:02:42 PM 66.0520 -49.9190 240° Southwest 467 537 36,000  Level FlightAware ADS-B
Mon 12:03:32 PM 66.0060 -50.1140 240° Southwest 467 537 36,000  Level FlightAware ADS-B
Mon 12:04:12 PM 65.9700 -50.2710 241° Southwest 467 537 36,000  Level FlightAware ADS-B
Mon 12:14:28 PM 65.0333 -52.9500 227° Southwest 470 541 36,000  Level Gander Center
Mon 12:15:28 PM 64.9500 -53.1667 228° Southwest 470 541 36,000  Level Gander Center
Mon 12:16:28 PM 64.8500 -53.3833 223° Southwest 470 541 36,000  Level Gander Center
Mon 12:17:28 PM 64.7833 -53.6333 238° Southwest 470 541 36,000  Level Gander Center
Mon 12:18:28 PM 64.7000 -53.8500 228° Southwest 470 541 36,000  Level Gander Center
Mon 12:19:28 PM 64.6000 -54.0667 223° Southwest 470 541 36,000  Level Gander Center
Mon 12:20:28 PM 64.5333 -54.2833 234° Southwest 470 541 36,000  Level Gander Center
Mon 12:21:28 PM 64.4333 -54.5333 227° Southwest 470 541 36,000  Level Gander Center
Mon 12:22:28 PM 64.3500 -54.7500 228° Southwest 470 541 36,000  Level Gander Center
Mon 12:23:28 PM 64.2667 -54.9667 229° Southwest 470 541 36,000  Level Gander Center
Mon 12:24:28 PM 64.1667 -55.2167 228° Southwest 470 541 36,000  Level Gander Center
Mon 12:25:28 PM 64.0833 -55.4167 226° Southwest 470 541 36,000  Level Gander Center
Mon 12:26:28 PM 63.9833 -55.6167 221° Southwest 470 541 36,000  Level Gander Center
Mon 12:27:28 PM 63.9000 -55.8667 233° Southwest 470 541 36,000  Level Gander Center
Mon 12:28:28 PM 63.8167 -56.0667 227° Southwest 470 541 36,000  Level Gander Center
Mon 12:29:28 PM 63.7333 -56.2667 227° Southwest 470 541 36,000  Level Gander Center
Mon 12:30:28 PM 63.6333 -56.4833 224° Southwest 480 552 36,000  Level Gander Center
Mon 12:31:28 PM 63.5500 -56.7167 231° Southwest 470 541 36,000  Level Gander Center
Mon 12:32:28 PM 63.4667 -56.9167 227° Southwest 470 541 36,000  Level Gander Center
Mon 12:33:28 PM 63.3833 -57.1167 227° Southwest 470 541 36,000  Level Gander Center
Mon 12:34:28 PM 63.2833 -57.3000 220° Southwest 470 541 36,000 50 Level Gander Center
Mon 12:35:28 PM 63.1833 -57.5333 227° Southwest 470 541 36,100 750 Climbing Gander Center
Mon 12:36:28 PM 63.1000 -57.7333 227° Southwest 470 541 37,500 1,125 Climbing Gander Center
Mon 12:37:04 PM 63.0500 -57.7667 197° South 470 541 37,900 313 Climbing Montreal Center
Mon 12:38:04 PM 62.9500 -57.9833 225° Southwest 460 529 38,000 50 Climbing Montreal Center
Mon 12:39:04 PM 62.8667 -58.1833 228° Southwest 460 529 38,000  Level Montreal Center
Mon 12:40:04 PM 62.7833 -58.3833 228° Southwest 460 529 38,000  Level Montreal Center
Mon 12:40:28 PM 62.7333 -58.5333 234° Southwest 460 529 38,000  Level Gander Center
Mon 12:41:28 PM 62.6500 -58.7167 225° Southwest 470 541 38,000  Level Gander Center
Mon 12:42:28 PM 62.5500 -58.9167 223° Southwest 470 541 38,000  Level Gander Center
Mon 12:43:28 PM 62.4500 -59.1000 220° Southwest 460 529 38,000  Level Gander Center
Mon 12:44:09 PM 62.4000 -59.2500 234° Southwest 460 529 38,000  Level Gander Center
Mon 12:45:09 PM 62.3167 -59.4333 226° Southwest 460 529 38,000  Level Gander Center
Mon 12:46:09 PM 62.2167 -59.6167 221° Southwest 460 529 38,000  Level Gander Center
Mon 12:46:28 PM 62.1833 -59.6833 223° Southwest 460 529 38,000  Level Gander Center
Mon 12:47:09 PM 62.1167 -59.8000 219° Southwest 460 529 38,000  Level Gander Center
Mon 12:48:04 PM 62.0333 -59.9167 213° Southwest 460 529 38,000  Level Montreal Center
Mon 12:49:04 PM 61.9333 -60.1000 221° Southwest 460 529 38,000  Level Montreal Center
Mon 12:49:28 PM 61.9000 -60.2333 242° Southwest 460 529 38,000  Level Gander Center
Mon 12:50:04 PM 61.8333 -60.2667 193° South 460 529 38,000  Level Montreal Center
Mon 12:51:04 PM 61.7500 -60.4500 226° Southwest 460 529 38,000  Level Montreal Center
Mon 12:51:28 PM 61.7167 -60.5833 242° Southwest 460 529 38,000  Level Gander Center
Mon 12:52:04 PM 61.6500 -60.6500 205° Southwest 450 518 38,000  Level Montreal Center
Mon 12:53:04 PM 61.5500 -60.8000 216° Southwest 450 518 38,000  Level Montreal Center
Mon 03:19:02 PM 46.4730 -77.0370 206° Southwest 441 507 38,000  Level FlightAware ADS-B
Mon 03:19:52 PM 46.3790 -77.1030 206° Southwest 444 511 38,000  Level FlightAware ADS-B
Mon 03:20:32 PM 46.3030 -77.1570 206° Southwest 440 506 38,000  Level FlightAware ADS-B
Mon 03:21:17 PM 46.2180 -77.2170 206° Southwest 430 495 38,000  Level FlightAware ADS-B
Mon 03:21:57 PM 46.1480 -77.2660 206° Southwest 430 495 38,000  Level FlightAware ADS-B
Mon 03:22:37 PM 46.0740 -77.3180 206° Southwest 431 496 38,000  Level FlightAware ADS-B
Mon 03:23:22 PM 45.9950 -77.3730 206° Southwest 433 498 38,000  Level FlightAware ADS-B
Mon 03:24:02 PM 45.9230 -77.4230 206° Southwest 431 496 38,000  Level FlightAware ADS-B
Mon 03:24:42 PM 45.8510 -77.4730 206° Southwest 421 484 38,000  Level FlightAware ADS-B
Mon 03:25:27 PM 45.7800 -77.5220 206° Southwest 418 481 38,000  Level FlightAware ADS-B
Mon 03:26:07 PM 45.7030 -77.5750 206° Southwest 418 481 38,000  Level FlightAware ADS-B
Mon 03:26:52 PM 45.6330 -77.6340 211° Southwest 416 479 38,000  Level FlightAware ADS-B
Mon 03:27:32 PM 45.5700 -77.7020 217° Southwest 418 481 38,000  Level FlightAware ADS-B
Mon 03:28:12 PM 45.5060 -77.7680 216° Southwest 417 480 38,000 -494 Level FlightAware ADS-B
Mon 03:28:57 PM 45.4350 -77.8430 217° Southwest 420 483 37,300 -918 Descending FlightAware ADS-B
Mon 03:29:37 PM 45.3730 -77.9080 216° Southwest 417 480 36,700 -1,129 Descending FlightAware ADS-B
Mon 03:30:22 PM 45.3030 -77.9820 217° Southwest 417 480 35,700 -1,553 Descending FlightAware ADS-B
Mon 03:31:02 PM 45.2450 -78.0420 216° Southwest 417 480 34,500 -1,950 Descending FlightAware ADS-B
Mon 03:31:42 PM 45.1790 -78.1110 216° Southwest 423 487 33,100 -2,057 Descending FlightAware ADS-B
Mon 03:32:12 PM 45.1400 -78.1730 228° Southwest 428 493 32,100 -1,629 Descending FlightAware ADS-B
Mon 03:32:52 PM 45.1040 -78.2710 243° Southwest 417 480 31,200 -1,271 Descending FlightAware ADS-B
Mon 03:33:37 PM 45.0630 -78.3790 242° Southwest 414 476 30,300 -1,200 Descending FlightAware ADS-B
Mon 03:34:17 PM 45.0290 -78.4690 242° Southwest 405 466 29,500 -1,200 Descending FlightAware ADS-B
Mon 03:35:02 PM 44.9890 -78.5740 242° Southwest 400 460 28,600 -1,200 Descending FlightAware ADS-B
Mon 03:35:17 PM 44.9700 -78.6060 230° Southwest 402 463 28,300 -1,200 Descending FlightAware ADS-B
Mon 03:35:42 PM 44.9290 -78.6380 209° Southwest 409 471 27,800 -1,200 Descending FlightAware ADS-B
Mon 03:36:27 PM 44.8450 -78.6530 187° South 409 471 26,900 -1,412 Descending FlightAware ADS-B
Mon 03:37:07 PM 44.7690 -78.6650 186° South 402 463 25,800 -1,694 Descending FlightAware ADS-B
Mon 03:37:52 PM 44.6880 -78.6780 187° South 400 460 24,500 -1,765 Descending FlightAware ADS-B
Mon 03:38:32 PM 44.6150 -78.6990 192° South 389 448 23,300 -1,500 Descending FlightAware ADS-B
Mon 03:39:12 PM 44.5590 -78.7560 216° Southwest 374 430 22,500 -1,341 Descending FlightAware ADS-B
Mon 03:39:57 PM 44.4940 -78.8180 214° Southwest 367 422 21,400 -1,482 Descending FlightAware ADS-B
Mon 03:40:37 PM 44.4380 -78.8720 215° Southwest 362 417 20,400 -1,425 Descending FlightAware ADS-B
Mon 03:41:17 PM 44.3860 -78.9220 215° Southwest 356 410 19,500 -1,412 Descending FlightAware ADS-B
Mon 03:42:02 PM 44.3240 -78.9820 215° Southwest 349 402 18,400 -1,482 Descending FlightAware ADS-B
Mon 03:42:42 PM 44.2710 -79.0330 215° Southwest 347 399 17,400 -1,624 Descending FlightAware ADS-B
Mon 03:43:27 PM 44.2120 -79.0910 215° Southwest 348 400 16,100 -1,553 Descending FlightAware ADS-B
Mon 03:44:07 PM 44.1620 -79.1430 217° Southwest 337 388 15,200 -918 Descending FlightAware ADS-B
Mon 03:44:52 PM 44.1080 -79.1990 217° Southwest 310 357 14,800 -706 Descending FlightAware ADS-B
Mon 03:45:32 PM 44.0620 -79.2450 216° Southwest 295 339 14,200 -1,050 Descending FlightAware ADS-B
Mon 03:46:12 PM 44.0180 -79.2900 216° Southwest 290 334 13,400 -1,200 Descending FlightAware ADS-B
Mon 03:46:57 PM 43.9690 -79.3400 216° Southwest 290 334 12,500 -1,200 Descending FlightAware ADS-B
Mon 03:47:37 PM 43.9260 -79.3830 216° Southwest 289 333 11,700 -1,200 Descending FlightAware ADS-B
Mon 03:48:17 PM 43.8830 -79.4270 216° Southwest 287 330 10,900 -1,200 Descending FlightAware ADS-B
Mon 03:48:47 PM 43.8550 -79.4610 221° Southwest 286 329 10,300 -1,200 Descending FlightAware ADS-B
Mon 03:49:17 PM 43.8350 -79.5120 241° Southwest 284 327 9,700 -1,200 Descending FlightAware ADS-B
Mon 03:49:42 PM 43.8200 -79.5500 241° Southwest 282 325 9,200 -1,200 Descending FlightAware ADS-B
Mon 03:50:12 PM 43.8000 -79.5990 241° Southwest 286 329 8,600 -1,200 Descending FlightAware ADS-B
Mon 03:50:37 PM 43.7830 -79.6390 240° Southwest 285 328 8,100 -982 Descending FlightAware ADS-B
Mon 03:51:07 PM 43.7640 -79.6860 241° Southwest 273 314 7,700 -700 Descending FlightAware ADS-B
Mon 03:51:37 PM 43.7450 -79.7280 238° Southwest 256 295 7,400 -655 Descending FlightAware ADS-B
Mon 03:52:02 PM 43.7250 -79.7570 226° Southwest 239 275 7,100 -750 Descending FlightAware ADS-B
Mon 03:52:17 PM 43.7140 -79.7730 226° Southwest 237 273 6,900 -1,067 Descending FlightAware ADS-B
Mon 03:52:47 PM 43.6910 -79.8060 226° Southwest 230 265 6,300 -1,091 Descending FlightAware ADS-B
Mon 03:53:12 PM 43.6730 -79.8320 226° Southwest 222 255 5,900 -900 Descending FlightAware ADS-B
Mon 03:53:27 PM 43.6630 -79.8470 227° Southwest 222 255 5,700 -667 Descending FlightAware ADS-B
Mon 03:53:57 PM 43.6420 -79.8770 226° Southwest 210 242 5,400 -655 Descending FlightAware ADS-B
Mon 03:54:22 PM 43.6260 -79.9010 227° Southwest 203 234 5,100 -873 Descending FlightAware ADS-B
Mon 03:54:52 PM 43.6060 -79.9290 225° Southwest 198 228 4,600 -1,050 Descending FlightAware ADS-B
Mon 03:55:02 PM 43.5980 -79.9350 209° Southwest 196 226 4,400 -1,200 Descending FlightAware ADS-B
Mon 03:55:32 PM 43.5740 -79.9240 162° South 199 229 3,800 -1,000 Descending FlightAware ADS-B
Mon 03:56:02 PM 43.5560 -79.9000 136° Southeast 193 222 3,400 -750 Descending FlightAware ADS-B
Mon 03:56:12 PM 43.5530 -79.8880 109° East 192 221 3,300 -300 Descending FlightAware ADS-B
Mon 03:56:42 PM 43.5580 -79.8520 79° East 177 204 3,200 -300 Descending FlightAware ADS-B
Mon 03:57:12 PM 43.5680 -79.8200 67° East 180 207 3,000 -327 Descending FlightAware ADS-B
Mon 03:57:37 PM 43.5810 -79.7990 49° Northeast 182 209 2,900 -655 Descending FlightAware ADS-B
Mon 03:58:07 PM 43.5990 -79.7730 46° Northeast 176 203 2,400 -1,000 Descending FlightAware ADS-B
Mon 03:58:37 PM 43.6150 -79.7510 45° Northeast 165 190 1,900 -982 Descending FlightAware ADS-B
Mon 03:59:02 PM 43.6270 -79.7330 47° Northeast 147 169 1,500 -900 Descending FlightAware ADS-B
Mon 03:59:17 PM 43.6340 -79.7220 49° Northeast 135 155 1,300 -667 Descending FlightAware ADS-B
Mon 03:59:47 PM 43.6470 -79.7040 45° Northeast 133 153 1,000 -600 Descending FlightAware ADS-B
Mon 03:59:57 PM 43.6510 -79.6980 47° Northeast 134 154 900 -750 Descending FlightAware ADS-B
Mon 04:00:27 PM 43.6640 -79.6790 47° Northeast 134 154 500 -720 Descending FlightAware ADS-B
Mon 04:00:47 PM 43.6710 -79.6680 49° Northeast 136 157 300 -600 Descending FlightAware ADS-B

Login

Don't have an account? Register now (free) for customized features, flight alerts, and more!